createdAt,value
2019-02-09T00:00:34.605Z,1.4
2019-02-09T00:01:41.528Z,1.4
2019-02-09T00:02:48.440Z,1.4
2019-02-09T00:03:57.222Z,1.4
2019-02-09T00:05:04.580Z,1.3
2019-02-09T00:06:11.774Z,1.3
2019-02-09T00:07:18.966Z,1.3
2019-02-09T00:08:25.885Z,1.2
2019-02-09T00:09:33.079Z,1.2
2019-02-09T00:10:40.280Z,1.2
2019-02-09T00:11:47.471Z,1.2
2019-02-09T00:12:54.674Z,1.2
2019-02-09T00:14:01.868Z,1.2
2019-02-09T00:15:09.064Z,1.2
2019-02-09T00:16:16.259Z,1.3
2019-02-09T00:17:23.445Z,1.3
2019-02-09T00:18:30.360Z,1.4
2019-02-09T00:19:37.560Z,1.4
2019-02-09T00:20:44.750Z,1.4
2019-02-09T00:21:51.945Z,1.4
2019-02-09T00:22:59.132Z,1.5
2019-02-09T00:24:06.322Z,1.6
2019-02-09T00:25:13.512Z,1.6
2019-02-09T00:26:20.710Z,1.7
2019-02-09T00:27:27.625Z,1.7
2019-02-09T00:28:34.836Z,1.9
2019-02-09T00:29:47.050Z,1.9
2019-02-09T00:30:54.250Z,2
2019-02-09T00:32:01.174Z,2
2019-02-09T00:33:08.091Z,2.1
2019-02-09T00:34:15.286Z,2.1
2019-02-09T00:35:22.510Z,2.2
2019-02-09T00:36:29.704Z,2.2
2019-02-09T00:37:36.903Z,2.2
2019-02-09T00:38:44.097Z,2.2
2019-02-09T00:39:51.285Z,2.3
2019-02-09T00:40:58.477Z,2.3
2019-02-09T00:42:05.667Z,2.3
2019-02-09T00:43:12.856Z,2.4
2019-02-09T00:44:20.050Z,2.4
2019-02-09T00:45:26.966Z,2.4
2019-02-09T00:46:34.153Z,2.4
2019-02-09T00:47:41.344Z,2.4
2019-02-09T00:48:48.265Z,2.5
2019-02-09T00:49:55.185Z,2.5
2019-02-09T00:51:02.380Z,2.5
2019-02-09T00:52:09.600Z,2.6
2019-02-09T00:53:16.795Z,2.6
2019-02-09T00:54:23.714Z,2.6
2019-02-09T00:55:30.912Z,2.6
2019-02-09T00:56:38.106Z,2.6
2019-02-09T00:57:45.298Z,2.6
2019-02-09T00:58:52.490Z,2.6
2019-02-09T00:59:59.685Z,2.6
2019-02-09T01:01:06.890Z,2.6
2019-02-09T01:02:14.088Z,2.6
2019-02-09T01:03:21.284Z,2.6
2019-02-09T01:04:28.478Z,2.6
2019-02-09T01:05:35.396Z,2.6
2019-02-09T01:06:42.603Z,2.6
2019-02-09T01:07:49.779Z,2.6
2019-02-09T01:08:56.975Z,2.6
2019-02-09T01:10:04.164Z,2.6
2019-02-09T01:11:11.367Z,2.6
2019-02-09T01:12:18.297Z,2.6
2019-02-09T01:13:25.256Z,2.6
2019-02-09T01:14:32.167Z,2.6
2019-02-09T01:15:39.355Z,2.6
2019-02-09T01:16:46.550Z,2.6
2019-02-09T01:17:53.744Z,2.7
2019-02-09T01:19:00.667Z,2.7
2019-02-09T01:20:07.600Z,2.7
2019-02-09T01:21:14.789Z,2.7
2019-02-09T01:22:21.995Z,2.8
2019-02-09T01:23:29.182Z,2.8
2019-02-09T01:24:36.373Z,2.8
2019-02-09T01:25:43.295Z,2.8
2019-02-09T01:26:50.490Z,2.9
2019-02-09T01:27:57.681Z,2.9
2019-02-09T01:29:04.875Z,3
2019-02-09T01:30:11.798Z,3
2019-02-09T01:31:18.994Z,3.1
2019-02-09T01:32:25.913Z,3.1
2019-02-09T01:33:33.103Z,3.1
2019-02-09T01:34:40.292Z,3.1
2019-02-09T01:35:47.219Z,3.1
2019-02-09T01:36:54.414Z,3.1
2019-02-09T01:38:01.607Z,3.2
2019-02-09T01:39:08.795Z,3.2
2019-02-09T01:40:15.995Z,3.2
2019-02-09T01:41:23.195Z,3.2
2019-02-09T01:42:30.387Z,3.2
2019-02-09T01:43:37.576Z,3.2
2019-02-09T01:44:44.498Z,3.2
2019-02-09T01:45:51.691Z,3.2
2019-02-09T01:46:58.886Z,3.1
2019-02-09T01:48:06.081Z,3.1
2019-02-09T01:49:13.296Z,3.1
2019-02-09T01:50:20.489Z,3.1
2019-02-09T01:51:27.698Z,3
2019-02-09T01:52:34.615Z,3
2019-02-09T01:53:41.543Z,3
2019-02-09T01:54:48.769Z,3
2019-02-09T01:55:55.686Z,3
2019-02-09T01:57:02.606Z,2.9
2019-02-09T01:58:09.804Z,2.9
2019-02-09T01:59:16.997Z,2.9
2019-02-09T02:00:23.644Z,2.9
2019-02-09T02:01:30.832Z,2.9
2019-02-09T02:02:37.751Z,2.9
2019-02-09T02:03:44.669Z,2.9
2019-02-09T02:04:51.862Z,3
2019-02-09T02:05:58.503Z,3
2019-02-09T02:07:05.699Z,3
2019-02-09T02:08:12.890Z,3
2019-02-09T02:09:19.816Z,3
2019-02-09T02:10:27.008Z,2.9
2019-02-09T02:11:33.963Z,2.9
2019-02-09T02:12:41.157Z,2.9
2019-02-09T02:13:48.075Z,3
2019-02-09T02:14:55.271Z,3
2019-02-09T02:16:02.202Z,3
2019-02-09T02:17:09.381Z,3
2019-02-09T02:18:16.299Z,3
2019-02-09T02:19:23.220Z,3
2019-02-09T02:20:29.619Z,3
2019-02-09T02:21:36.811Z,3
2019-02-09T02:22:43.999Z,3
2019-02-09T02:23:51.194Z,3
2019-02-09T02:24:58.386Z,3.1
2019-02-09T02:26:05.304Z,3.1
2019-02-09T02:27:12.502Z,3.1
2019-02-09T02:28:19.702Z,3.2
2019-02-09T02:29:26.893Z,3.2
2019-02-09T02:30:33.813Z,3.2
2019-02-09T02:31:41.012Z,3.2
2019-02-09T02:32:48.206Z,3.2
2019-02-09T02:33:55.128Z,3.1
2019-02-09T02:35:02.322Z,3.1
2019-02-09T02:36:09.514Z,3.1
2019-02-09T02:37:16.789Z,3.1
2019-02-09T02:38:23.721Z,3.1
2019-02-09T02:39:30.640Z,3.1
2019-02-09T02:40:37.842Z,3.1
2019-02-09T02:41:45.027Z,3.1
2019-02-09T02:42:52.217Z,3.1
2019-02-09T02:43:59.142Z,3.1
2019-02-09T02:45:06.332Z,3.1
2019-02-09T02:46:12.978Z,3.1
2019-02-09T02:47:20.180Z,3.1
2019-02-09T02:48:27.367Z,3
2019-02-09T02:49:34.555Z,3
2019-02-09T02:50:41.750Z,3
2019-02-09T02:51:48.945Z,3
2019-02-09T02:52:55.856Z,3
2019-02-09T02:54:02.773Z,3
2019-02-09T02:55:09.704Z,3
2019-02-09T02:56:16.887Z,3
2019-02-09T02:57:24.094Z,2.9
2019-02-09T02:58:31.297Z,2.9
2019-02-09T02:59:38.211Z,2.9
2019-02-09T03:00:45.128Z,2.9
2019-02-09T03:01:51.775Z,2.9
2019-02-09T03:02:58.965Z,2.9
2019-02-09T03:04:06.154Z,2.8
2019-02-09T03:05:12.800Z,2.9
2019-02-09T03:06:19.991Z,2.8
2019-02-09T03:07:27.187Z,2.9
2019-02-09T03:08:34.110Z,2.8
2019-02-09T03:09:41.306Z,2.9
2019-02-09T03:10:48.237Z,2.9
2019-02-09T03:11:55.468Z,2.8
2019-02-09T03:13:02.658Z,2.8
2019-02-09T03:14:09.570Z,2.8
2019-02-09T03:15:16.492Z,2.8
2019-02-09T03:16:23.685Z,2.8
2019-02-09T03:17:30.885Z,2.7
2019-02-09T03:18:37.835Z,2.7
2019-02-09T03:19:44.807Z,2.7
2019-02-09T03:20:51.731Z,2.7
2019-02-09T03:21:58.944Z,2.7
2019-02-09T03:23:05.861Z,2.6
2019-02-09T03:24:13.053Z,2.6
2019-02-09T03:25:20.246Z,2.7
2019-02-09T03:26:27.449Z,2.7
2019-02-09T03:27:34.369Z,2.7
2019-02-09T03:28:41.318Z,2.7
2019-02-09T03:29:48.233Z,2.7
2019-02-09T03:30:55.427Z,2.7
2019-02-09T03:32:02.625Z,2.8
2019-02-09T03:33:09.882Z,2.8
2019-02-09T03:34:17.068Z,2.8
2019-02-09T03:35:24.264Z,2.8
2019-02-09T03:36:31.454Z,2.9
2019-02-09T03:37:38.643Z,2.9
2019-02-09T03:38:45.559Z,2.9
2019-02-09T03:39:52.477Z,2.9
2019-02-09T03:40:59.672Z,2.9
2019-02-09T03:42:06.913Z,3
2019-02-09T03:43:14.098Z,3
2019-02-09T03:44:21.291Z,3
2019-02-09T03:45:28.493Z,3
2019-02-09T03:46:35.683Z,3.1
2019-02-09T03:47:42.609Z,3
2019-02-09T03:48:49.803Z,3
2019-02-09T03:49:57.000Z,3
2019-02-09T03:51:04.178Z,3
2019-02-09T03:52:11.375Z,3.1
2019-02-09T03:53:18.566Z,3
2019-02-09T03:54:25.772Z,3.1
2019-02-09T03:55:32.680Z,3.1
2019-02-09T03:56:39.873Z,3.1
2019-02-09T03:57:47.073Z,3.1
2019-02-09T03:58:54.005Z,3.2
2019-02-09T04:00:01.197Z,3.2
2019-02-09T04:01:08.407Z,3.2
2019-02-09T04:02:15.606Z,3.2
2019-02-09T04:03:22.255Z,3.2
2019-02-09T04:04:29.178Z,3.2
2019-02-09T04:05:36.095Z,3.3
2019-02-09T04:06:43.015Z,3.3
2019-02-09T04:07:50.209Z,3.3
2019-02-09T04:08:56.855Z,3.3
2019-02-09T04:10:04.054Z,3.3
2019-02-09T04:11:11.249Z,3.3
2019-02-09T04:12:18.443Z,3.3
2019-02-09T04:13:25.634Z,3.4
2019-02-09T04:14:32.831Z,3.4
2019-02-09T04:15:40.021Z,3.4
2019-02-09T04:16:46.936Z,3.5
2019-02-09T04:17:54.130Z,3.5
2019-02-09T04:19:01.323Z,3.5
2019-02-09T04:20:08.236Z,3.5
2019-02-09T04:21:15.429Z,3.5
2019-02-09T04:22:22.622Z,3.6
2019-02-09T04:23:29.534Z,3.5
2019-02-09T04:24:36.726Z,3.6
2019-02-09T04:25:43.920Z,3.6
2019-02-09T04:26:51.114Z,3.6
2019-02-09T04:27:58.307Z,3.6
2019-02-09T04:29:05.499Z,3.6
2019-02-09T04:30:12.691Z,3.6
2019-02-09T04:31:19.895Z,3.7
2019-02-09T04:32:27.075Z,3.7
2019-02-09T04:33:34.283Z,3.6
2019-02-09T04:34:41.460Z,3.7
2019-02-09T04:35:48.657Z,3.8
2019-02-09T04:36:55.850Z,3.7
2019-02-09T04:38:02.783Z,3.8
2019-02-09T04:39:09.959Z,3.8
2019-02-09T04:40:16.877Z,3.8
2019-02-09T04:41:24.071Z,3.9
2019-02-09T04:42:31.265Z,3.9
2019-02-09T04:43:38.466Z,3.8
2019-02-09T04:44:45.664Z,3.8
2019-02-09T04:45:52.856Z,3.8
2019-02-09T04:47:00.048Z,3.8
2019-02-09T04:48:06.697Z,3.8
2019-02-09T04:49:13.890Z,3.8
2019-02-09T04:50:21.080Z,3.8
2019-02-09T04:51:28.282Z,3.9
2019-02-09T04:52:35.473Z,3.9
2019-02-09T04:53:42.664Z,4
2019-02-09T04:54:49.582Z,4
2019-02-09T04:55:56.780Z,4.1
2019-02-09T04:57:03.971Z,4.2
2019-02-09T04:58:11.166Z,4.2
2019-02-09T04:59:18.356Z,4.2
2019-02-09T05:00:25.279Z,4.2
2019-02-09T05:01:32.516Z,4.2
2019-02-09T05:02:39.709Z,4.3
2019-02-09T05:03:46.623Z,4.3
2019-02-09T05:04:53.817Z,4.3
2019-02-09T05:06:01.011Z,4.3
2019-02-09T05:07:08.202Z,4.3
2019-02-09T05:08:15.602Z,4.3
2019-02-09T05:09:22.808Z,4.3
2019-02-09T05:10:29.997Z,4.3
2019-02-09T05:11:37.195Z,4.3
2019-02-09T05:12:44.399Z,4.3
2019-02-09T05:13:51.603Z,4.3
2019-02-09T05:14:58.522Z,4.3
2019-02-09T05:16:05.717Z,4.3
2019-02-09T05:17:12.908Z,4.4
2019-02-09T05:18:20.102Z,4.4
2019-02-09T05:19:27.306Z,4.4
2019-02-09T05:20:34.494Z,4.4
2019-02-09T05:21:41.687Z,4.4
2019-02-09T05:22:48.877Z,4.4
2019-02-09T05:23:56.073Z,4.4
2019-02-09T05:25:03.292Z,4.4
2019-02-09T05:26:10.485Z,4.4
2019-02-09T05:27:17.678Z,4.4
2019-02-09T05:28:24.873Z,4.5
2019-02-09T05:29:31.791Z,4.4
2019-02-09T05:30:38.726Z,4.5
2019-02-09T05:31:45.916Z,4.5
2019-02-09T05:32:53.113Z,4.5
2019-02-09T05:34:00.040Z,4.5
2019-02-09T05:35:06.978Z,4.5
2019-02-09T05:36:13.907Z,4.6
2019-02-09T05:37:21.099Z,4.6
2019-02-09T05:38:28.291Z,4.6
2019-02-09T05:39:35.494Z,4.7
2019-02-09T05:40:42.688Z,4.7
2019-02-09T05:41:49.878Z,4.8
2019-02-09T05:42:57.072Z,4.8
2019-02-09T05:44:04.265Z,4.9
2019-02-09T05:45:11.456Z,4.9
2019-02-09T05:46:18.653Z,4.9
2019-02-09T05:47:25.863Z,4.9
2019-02-09T05:48:32.780Z,4.9
2019-02-09T05:49:39.979Z,5
2019-02-09T05:50:47.173Z,5
2019-02-09T05:51:54.367Z,5
2019-02-09T05:53:01.291Z,5
2019-02-09T05:54:08.223Z,5
2019-02-09T05:55:15.418Z,5
2019-02-09T05:56:22.619Z,5
2019-02-09T05:57:29.816Z,5.1
2019-02-09T05:58:36.740Z,5.1
2019-02-09T05:59:43.669Z,5.1
2019-02-09T06:00:50.878Z,5.1
2019-02-09T06:01:57.515Z,5.1
2019-02-09T06:03:04.436Z,5.1
2019-02-09T06:04:11.355Z,5.1
2019-02-09T06:05:18.545Z,5.1
2019-02-09T06:06:25.770Z,5.1
2019-02-09T06:07:32.692Z,5.1
2019-02-09T06:08:39.885Z,5.1
2019-02-09T06:09:47.078Z,5
2019-02-09T06:10:54.273Z,5
2019-02-09T06:12:01.468Z,5
2019-02-09T06:13:08.112Z,5
2019-02-09T06:14:15.306Z,5
2019-02-09T06:15:22.500Z,5
2019-02-09T06:16:31.349Z,5
2019-02-09T06:17:37.994Z,5
2019-02-09T06:18:44.914Z,5
2019-02-09T06:19:52.111Z,5
2019-02-09T06:20:59.301Z,5
2019-02-09T06:22:06.498Z,5
2019-02-09T06:23:13.688Z,5
2019-02-09T06:24:20.895Z,4.9
2019-02-09T06:25:28.207Z,4.9
2019-02-09T06:26:35.431Z,5
2019-02-09T06:27:42.623Z,5
2019-02-09T06:28:49.817Z,5
2019-02-09T06:29:57.007Z,5
2019-02-09T06:31:03.921Z,5
2019-02-09T06:32:11.126Z,5
2019-02-09T06:33:17.776Z,5
2019-02-09T06:34:24.971Z,5
2019-02-09T06:35:31.893Z,5.1
2019-02-09T06:36:39.092Z,5
2019-02-09T06:37:46.287Z,5
2019-02-09T06:38:52.943Z,5.1
2019-02-09T06:39:59.879Z,5.1
2019-02-09T06:41:07.101Z,5.1
2019-02-09T06:42:14.037Z,5.1
2019-02-09T06:43:21.229Z,5.1
2019-02-09T06:44:28.425Z,5.1
2019-02-09T06:45:35.621Z,5.1
2019-02-09T06:46:42.817Z,5.1
2019-02-09T06:47:49.733Z,5.2
2019-02-09T06:48:56.925Z,5.2
2019-02-09T06:50:04.124Z,5.3
2019-02-09T06:51:11.047Z,5.3
2019-02-09T06:52:17.695Z,5.3
2019-02-09T06:53:24.894Z,5.4
2019-02-09T06:54:31.813Z,5.4
2019-02-09T06:55:38.735Z,5.4
2019-02-09T06:56:45.966Z,5.5
2019-02-09T06:57:53.158Z,5.5
2019-02-09T06:59:00.077Z,5.5
2019-02-09T07:00:07.270Z,5.6
2019-02-09T07:01:14.465Z,5.6
2019-02-09T07:02:21.123Z,5.6
2019-02-09T07:03:28.305Z,5.6
2019-02-09T07:04:35.238Z,5.5
2019-02-09T07:05:42.435Z,5.5
2019-02-09T07:06:49.635Z,5.6
2019-02-09T07:07:56.557Z,5.6
2019-02-09T07:09:03.456Z,5.6
2019-02-09T07:10:10.651Z,5.6
2019-02-09T07:11:17.845Z,5.6
2019-02-09T07:12:25.034Z,5.6
2019-02-09T07:13:32.239Z,5.7
2019-02-09T07:14:39.432Z,5.7
2019-02-09T07:15:46.644Z,5.7
2019-02-09T07:16:53.570Z,5.7
2019-02-09T07:18:00.768Z,5.7
2019-02-09T07:19:07.692Z,5.7
2019-02-09T07:20:14.888Z,5.7
2019-02-09T07:21:21.814Z,5.7
2019-02-09T07:22:29.008Z,5.7
2019-02-09T07:23:36.202Z,5.7
2019-02-09T07:24:43.114Z,5.7
2019-02-09T07:25:50.329Z,5.7
2019-02-09T07:26:57.247Z,5.7
2019-02-09T07:28:04.446Z,5.7
2019-02-09T07:29:11.637Z,5.7
2019-02-09T07:30:18.562Z,5.7
2019-02-09T07:31:25.756Z,5.7
2019-02-09T07:32:32.954Z,5.7
2019-02-09T07:33:40.144Z,5.7
2019-02-09T07:34:47.339Z,5.7
2019-02-09T07:35:54.555Z,5.7
2019-02-09T07:37:01.746Z,5.8
2019-02-09T07:38:08.938Z,5.7
2019-02-09T07:39:16.143Z,5.8
2019-02-09T07:40:23.338Z,5.7
2019-02-09T07:41:30.542Z,5.7
2019-02-09T07:42:37.732Z,5.7
2019-02-09T07:43:44.387Z,5.7
2019-02-09T07:44:51.583Z,5.7
2019-02-09T07:45:58.784Z,5.7
2019-02-09T07:47:05.979Z,5.7
2019-02-09T07:48:13.180Z,5.7
2019-02-09T07:49:20.377Z,5.7
2019-02-09T07:50:27.570Z,5.7
2019-02-09T07:51:34.764Z,5.8
2019-02-09T07:52:41.959Z,5.8
2019-02-09T07:53:49.186Z,5.8
2019-02-09T07:54:56.110Z,5.8
2019-02-09T07:56:03.032Z,5.8
2019-02-09T07:57:09.957Z,5.8
2019-02-09T07:58:17.151Z,5.8
2019-02-09T07:59:24.077Z,5.8
2019-02-09T08:00:31.267Z,5.8
2019-02-09T08:01:38.465Z,5.8
2019-02-09T08:02:45.659Z,5.8
2019-02-09T08:03:52.588Z,5.8
2019-02-09T08:04:59.511Z,5.8
2019-02-09T08:06:06.708Z,5.9
2019-02-09T08:07:13.903Z,5.9
2019-02-09T08:08:20.827Z,6
2019-02-09T08:09:28.034Z,6
2019-02-09T08:10:35.227Z,6
2019-02-09T08:11:42.423Z,6
2019-02-09T08:12:49.621Z,6
2019-02-09T08:13:56.818Z,6
2019-02-09T08:15:04.014Z,6
2019-02-09T08:16:10.933Z,6.1
2019-02-09T08:17:18.133Z,6.1
2019-02-09T08:18:25.051Z,6.1
2019-02-09T08:19:32.248Z,6.2
2019-02-09T08:20:39.442Z,6.2
2019-02-09T08:21:46.739Z,6.2
2019-02-09T08:22:53.932Z,6.3
2019-02-09T08:24:01.135Z,6.3
2019-02-09T08:25:08.345Z,6.3
2019-02-09T08:26:15.541Z,6.3
2019-02-09T08:27:24.196Z,6.3
2019-02-09T08:28:31.392Z,6.3
2019-02-09T08:29:38.587Z,6.3
2019-02-09T08:30:45.784Z,6.3
2019-02-09T08:31:52.975Z,6.3
2019-02-09T08:32:59.914Z,6.3
2019-02-09T08:34:07.115Z,6.4
2019-02-09T08:35:14.312Z,6.4
2019-02-09T08:36:21.506Z,6.4
2019-02-09T08:37:28.129Z,6.4
2019-02-09T08:38:35.322Z,6.5
2019-02-09T08:39:42.520Z,6.5
2019-02-09T08:40:49.716Z,6.5
2019-02-09T08:41:56.910Z,6.5
2019-02-09T08:43:04.105Z,6.5
2019-02-09T08:44:11.031Z,6.5
2019-02-09T08:45:18.220Z,6.6
2019-02-09T08:46:25.414Z,6.6
2019-02-09T08:47:32.606Z,6.6
2019-02-09T08:48:39.826Z,6.6
2019-02-09T08:49:47.017Z,6.6
2019-02-09T08:50:54.214Z,6.6
2019-02-09T08:52:01.414Z,6.6
2019-02-09T08:53:08.606Z,6.6
2019-02-09T08:54:15.802Z,6.6
2019-02-09T08:55:23.001Z,6.6
2019-02-09T08:56:29.922Z,6.6
2019-02-09T08:57:37.120Z,6.6
2019-02-09T08:58:44.325Z,6.6
2019-02-09T08:59:51.522Z,6.7
2019-02-09T09:00:58.442Z,6.7
2019-02-09T09:02:05.640Z,6.8
2019-02-09T09:03:12.563Z,6.8
2019-02-09T09:04:19.760Z,6.8
2019-02-09T09:05:26.684Z,6.8
2019-02-09T09:06:33.888Z,6.8
2019-02-09T09:07:41.083Z,6.8
2019-02-09T09:08:48.279Z,6.8
2019-02-09T09:09:55.472Z,6.8
2019-02-09T09:11:02.400Z,6.9
2019-02-09T09:12:09.597Z,6.9
2019-02-09T09:13:16.516Z,6.9
2019-02-09T09:14:23.438Z,6.9
2019-02-09T09:15:30.634Z,6.9
2019-02-09T09:16:37.835Z,6.9
2019-02-09T09:17:45.030Z,6.9
2019-02-09T09:18:52.231Z,6.9
2019-02-09T09:19:59.424Z,6.9
2019-02-09T09:21:06.633Z,6.9
2019-02-09T09:22:13.826Z,6.9
2019-02-09T09:23:21.055Z,7
2019-02-09T09:24:27.958Z,7
2019-02-09T09:25:35.168Z,7
2019-02-09T09:26:42.092Z,7.1
2019-02-09T09:27:49.286Z,7.1
2019-02-09T09:28:56.492Z,7.1
2019-02-09T09:30:03.418Z,7.1
2019-02-09T09:31:10.616Z,7.1
2019-02-09T09:32:17.810Z,7.1
2019-02-09T09:33:25.005Z,7.1
2019-02-09T09:34:31.928Z,7
2019-02-09T09:35:40.706Z,7
2019-02-09T09:36:47.902Z,7
2019-02-09T09:37:54.830Z,7
2019-02-09T09:39:02.030Z,7
2019-02-09T09:40:09.232Z,7
2019-02-09T09:41:16.151Z,7
2019-02-09T09:42:23.348Z,7
2019-02-09T09:43:30.003Z,7
2019-02-09T09:44:36.937Z,6.9
2019-02-09T09:45:44.138Z,6.9
2019-02-09T09:46:51.335Z,6.9
2019-02-09T09:47:58.270Z,6.9
2019-02-09T09:49:05.462Z,6.8
2019-02-09T09:50:12.658Z,6.8
2019-02-09T09:51:19.588Z,6.8
2019-02-09T09:52:26.788Z,6.8
2019-02-09T09:53:33.708Z,6.8
2019-02-09T09:54:40.914Z,6.8
2019-02-09T09:55:47.841Z,6.7
2019-02-09T09:56:54.784Z,6.7
2019-02-09T09:58:01.193Z,6.7
2019-02-09T09:59:08.397Z,6.8
2019-02-09T10:00:15.609Z,6.9
2019-02-09T10:01:22.808Z,7
2019-02-09T10:02:37.116Z,7
2019-02-09T10:03:44.316Z,7
2019-02-09T10:04:51.512Z,7
2019-02-09T10:05:58.711Z,6.9
2019-02-09T10:07:05.906Z,6.9
2019-02-09T10:08:13.113Z,6.9
2019-02-09T10:09:20.036Z,7
2019-02-09T10:10:27.233Z,7.1
2019-02-09T10:11:34.436Z,7.1
2019-02-09T10:12:41.643Z,7.1
2019-02-09T10:13:48.573Z,7.2
2019-02-09T10:14:55.490Z,7.2
2019-02-09T10:16:02.694Z,7.3
2019-02-09T10:17:09.890Z,7.4
2019-02-09T10:18:17.086Z,7.5
2019-02-09T10:19:24.308Z,7.6
2019-02-09T10:20:31.513Z,7.7
2019-02-09T10:21:38.716Z,7.7
2019-02-09T10:22:45.913Z,7.8
2019-02-09T10:23:52.847Z,7.9
2019-02-09T10:24:59.778Z,8
2019-02-09T10:26:06.466Z,8.1
2019-02-09T10:27:13.666Z,8
2019-02-09T10:28:20.863Z,8.1
2019-02-09T10:29:27.791Z,8.2
2019-02-09T10:30:34.986Z,8.2
2019-02-09T10:31:42.182Z,8.2
2019-02-09T10:32:49.383Z,8.2
2019-02-09T10:33:56.581Z,8.2
2019-02-09T10:35:03.781Z,8.2
2019-02-09T10:36:10.701Z,8.2
2019-02-09T10:37:17.894Z,8.2
2019-02-09T10:38:25.100Z,8.1
2019-02-09T10:39:31.766Z,8.1
2019-02-09T10:40:38.969Z,8.1
2019-02-09T10:41:46.167Z,8.1
2019-02-09T10:42:53.105Z,8.1
2019-02-09T10:44:00.294Z,8.1
2019-02-09T10:45:07.494Z,8.1
2019-02-09T10:46:14.692Z,8.1
2019-02-09T10:47:21.886Z,8.1
2019-02-09T10:48:29.084Z,8.1
2019-02-09T10:49:36.279Z,8.2
2019-02-09T10:50:43.473Z,8.2
2019-02-09T10:51:50.672Z,8.2
2019-02-09T10:52:57.603Z,8.2
2019-02-09T10:54:04.808Z,8.2
2019-02-09T10:55:12.005Z,8.2
2019-02-09T10:56:19.205Z,8.2
2019-02-09T10:57:26.133Z,8.4
2019-02-09T10:58:33.334Z,8.3
2019-02-09T10:59:40.531Z,8.3
2019-02-09T11:00:47.725Z,8.3
2019-02-09T11:01:54.383Z,8.2
2019-02-09T11:03:01.607Z,8.2
2019-02-09T11:04:08.805Z,8.3
2019-02-09T11:05:16.008Z,8.3
2019-02-09T11:06:23.210Z,8.4
2019-02-09T11:07:30.411Z,8.3
2019-02-09T11:08:37.605Z,8.2
2019-02-09T11:09:44.798Z,8.3
2019-02-09T11:10:51.994Z,8.3
2019-02-09T11:11:59.199Z,8.2
2019-02-09T11:13:06.402Z,8.3
2019-02-09T11:14:13.600Z,8.2
2019-02-09T11:15:20.525Z,8.1
2019-02-09T11:16:27.455Z,8.1
2019-02-09T11:17:34.652Z,8.2
2019-02-09T11:18:41.851Z,8.2
2019-02-09T11:19:49.048Z,8.2
2019-02-09T11:20:55.701Z,8.2
2019-02-09T11:22:02.901Z,8.3
2019-02-09T11:23:10.096Z,8.3
2019-02-09T11:24:17.018Z,8.4
2019-02-09T11:25:24.223Z,8.4
2019-02-09T11:26:31.416Z,8.4
2019-02-09T11:27:39.185Z,8.5
2019-02-09T11:28:46.389Z,8.6
2019-02-09T11:29:53.598Z,8.6
2019-02-09T11:31:00.791Z,8.6
2019-02-09T11:32:07.991Z,8.7
2019-02-09T11:33:14.889Z,8.8
2019-02-09T11:34:22.078Z,8.8
2019-02-09T11:35:29.283Z,8.9
2019-02-09T11:36:36.492Z,8.9
2019-02-09T11:37:43.695Z,9
2019-02-09T11:38:50.898Z,9
2019-02-09T11:39:58.104Z,8.8
2019-02-09T11:41:05.315Z,8.7
2019-02-09T11:42:13.921Z,8.6
2019-02-09T11:43:21.122Z,8.6
2019-02-09T11:44:28.326Z,8.6
2019-02-09T11:45:35.527Z,8.6
2019-02-09T11:46:42.726Z,8.5
2019-02-09T11:47:49.923Z,8.4
2019-02-09T11:48:57.126Z,8.3
2019-02-09T11:50:04.327Z,8.3
2019-02-09T11:51:12.746Z,8.3
2019-02-09T11:52:19.946Z,8.3
2019-02-09T11:53:28.682Z,8.3
2019-02-09T11:54:35.883Z,8.3
2019-02-09T11:55:43.086Z,8.3
2019-02-09T11:56:50.013Z,8.2
2019-02-09T11:57:57.466Z,8.2
2019-02-09T11:59:05.142Z,8.1
2019-02-09T12:00:12.339Z,8.1
2019-02-09T12:01:19.540Z,7.9
2019-02-09T12:02:26.758Z,7.9
2019-02-09T12:03:33.670Z,7.9
2019-02-09T12:04:40.598Z,7.9
2019-02-09T12:05:47.798Z,7.9
2019-02-09T12:06:54.466Z,7.9
2019-02-09T12:08:01.672Z,7.8
2019-02-09T12:09:08.884Z,7.8
2019-02-09T12:10:16.082Z,8
2019-02-09T12:11:23.282Z,8.1
2019-02-09T12:12:30.483Z,8.2
2019-02-09T12:13:39.240Z,8.2
2019-02-09T12:14:46.447Z,8.2
2019-02-09T12:15:53.686Z,8.3
2019-02-09T12:17:00.610Z,8.3
2019-02-09T12:18:07.814Z,8.4
2019-02-09T12:19:15.010Z,8.4
2019-02-09T12:20:22.214Z,8.4
2019-02-09T12:21:29.420Z,8.4
2019-02-09T12:22:36.619Z,8.5
2019-02-09T12:23:43.813Z,8.5
2019-02-09T12:24:50.743Z,8.6
2019-02-09T12:25:57.937Z,8.7
2019-02-09T12:27:05.131Z,8.8
2019-02-09T12:28:12.334Z,8.9
2019-02-09T12:29:19.534Z,9
2019-02-09T12:30:26.730Z,9.2
2019-02-09T12:31:33.655Z,9.1
2019-02-09T12:32:40.854Z,9.1
2019-02-09T12:33:47.790Z,9.2
2019-02-09T12:34:54.983Z,9.3
2019-02-09T12:36:01.360Z,9.6
2019-02-09T12:37:08.563Z,9.4
2019-02-09T12:38:15.490Z,9.4
2019-02-09T12:39:22.711Z,9.3
2019-02-09T12:40:29.905Z,9.4
2019-02-09T12:41:37.102Z,9.6
2019-02-09T12:42:44.303Z,9.7
2019-02-09T12:43:51.499Z,9.5
2019-02-09T12:44:58.420Z,9.6
2019-02-09T12:46:05.076Z,9.4
2019-02-09T12:47:11.999Z,9.3
2019-02-09T12:48:19.203Z,9.3
2019-02-09T12:49:26.405Z,9.1
2019-02-09T12:50:33.336Z,9.1
2019-02-09T12:51:40.535Z,9
2019-02-09T12:52:47.734Z,9
2019-02-09T12:53:54.931Z,8.9
2019-02-09T12:55:02.142Z,8.8
2019-02-09T12:56:09.341Z,8.7
2019-02-09T12:57:16.542Z,8.7
2019-02-09T12:58:23.467Z,8.5
2019-02-09T12:59:30.667Z,8.5
2019-02-09T13:00:37.920Z,8.5
2019-02-09T13:01:45.109Z,8.4
2019-02-09T13:02:52.318Z,8.4
2019-02-09T13:03:59.243Z,8.4
2019-02-09T13:05:06.445Z,8.3
2019-02-09T13:06:13.650Z,8.3
2019-02-09T13:07:20.848Z,8.3
2019-02-09T13:08:28.050Z,8.2
2019-02-09T13:09:34.981Z,8.4
2019-02-09T13:10:41.912Z,8.5
2019-02-09T13:11:49.116Z,8.5
2019-02-09T13:12:56.316Z,8.6
2019-02-09T13:14:03.516Z,8.6
2019-02-09T13:15:10.710Z,8.5
2019-02-09T13:16:17.909Z,8.5
2019-02-09T13:17:25.118Z,8.4
2019-02-09T13:18:32.321Z,8.5
2019-02-09T13:19:39.524Z,8.6
2019-02-09T13:20:46.722Z,8.6
2019-02-09T13:21:53.924Z,8.6
2019-02-09T13:23:00.861Z,8.5
2019-02-09T13:24:08.058Z,8.6
2019-02-09T13:25:15.255Z,8.6
2019-02-09T13:26:22.465Z,8.6
2019-02-09T13:27:29.381Z,8.6
2019-02-09T13:28:36.582Z,8.6
2019-02-09T13:29:43.781Z,8.6
2019-02-09T13:30:50.987Z,8.7
2019-02-09T13:31:58.190Z,8.6
2019-02-09T13:33:05.400Z,8.6
2019-02-09T13:34:12.322Z,8.5
2019-02-09T13:35:19.524Z,8.4
2019-02-09T13:36:26.186Z,8.4
2019-02-09T13:37:33.392Z,8.4
2019-02-09T13:38:40.592Z,8.4
2019-02-09T13:39:47.513Z,8.3
2019-02-09T13:40:54.715Z,8.3
2019-02-09T13:42:01.924Z,8.2
2019-02-09T13:43:08.842Z,8.2
2019-02-09T13:44:16.039Z,8.3
2019-02-09T13:45:23.242Z,8.3
2019-02-09T13:46:30.167Z,8.3
2019-02-09T13:47:37.367Z,8.4
2019-02-09T13:48:44.565Z,8.4
2019-02-09T13:49:51.489Z,8.4
2019-02-09T13:50:58.415Z,8.4
2019-02-09T13:52:05.340Z,8.3
2019-02-09T13:53:12.275Z,8.3
2019-02-09T13:54:19.474Z,8.3
2019-02-09T13:55:26.401Z,8.3
2019-02-09T13:56:33.594Z,8.3
2019-02-09T13:57:40.794Z,8.3
2019-02-09T13:58:48.025Z,8.3
2019-02-09T13:59:55.224Z,8.3
2019-02-09T14:01:04.135Z,8.2
2019-02-09T14:02:11.335Z,8.2
2019-02-09T14:03:17.991Z,8.1
2019-02-09T14:04:25.201Z,8.1
2019-02-09T14:05:32.396Z,8.1
2019-02-09T14:06:39.593Z,8.1
2019-02-09T14:07:46.791Z,8.1
2019-02-09T14:08:53.177Z,8.2
2019-02-09T14:10:00.373Z,8.1
2019-02-09T14:11:07.570Z,8.1
2019-02-09T14:12:14.774Z,8.2
2019-02-09T14:13:21.973Z,8.2
2019-02-09T14:14:29.174Z,8.3
2019-02-09T14:15:36.371Z,8.3
2019-02-09T14:16:43.574Z,8.3
2019-02-09T14:17:50.773Z,8.2
2019-02-09T14:18:57.970Z,8.2
2019-02-09T14:20:05.170Z,8.2
2019-02-09T14:21:12.096Z,8.3
2019-02-09T14:22:19.290Z,8.2
2019-02-09T14:23:26.492Z,8.2
2019-02-09T14:24:33.693Z,8.2
2019-02-09T14:25:40.896Z,8.3
2019-02-09T14:26:48.097Z,8.3
2019-02-09T14:27:55.337Z,8.4
2019-02-09T14:29:02.563Z,8.4
2019-02-09T14:30:09.748Z,8.5
2019-02-09T14:31:16.954Z,8.5
2019-02-09T14:32:24.154Z,8.5
2019-02-09T14:33:31.295Z,8.6
2019-02-09T14:34:37.949Z,8.7
2019-02-09T14:35:45.147Z,8.8
2019-02-09T14:36:52.345Z,8.7
2019-02-09T14:37:59.538Z,8.8
2019-02-09T14:39:06.471Z,8.8
2019-02-09T14:40:13.405Z,8.7
2019-02-09T14:41:20.698Z,8.6
2019-02-09T14:42:27.626Z,8.7
2019-02-09T14:43:34.827Z,8.8
2019-02-09T14:44:42.033Z,8.9
2019-02-09T14:45:49.231Z,8.9
2019-02-09T14:46:56.433Z,8.9
2019-02-09T14:48:03.633Z,8.7
2019-02-09T14:49:10.833Z,8.7
2019-02-09T14:50:18.029Z,8.7
2019-02-09T14:51:25.230Z,8.7
2019-02-09T14:52:32.155Z,8.7
2019-02-09T14:53:39.357Z,8.6
2019-02-09T14:54:46.556Z,8.5
2019-02-09T14:55:53.753Z,8.4
2019-02-09T14:57:00.956Z,8.4
2019-02-09T14:58:07.892Z,8.4
2019-02-09T14:59:15.092Z,8.4
2019-02-09T15:00:22.289Z,8.4
2019-02-09T15:01:29.495Z,8.4
2019-02-09T15:02:36.694Z,8.3
2019-02-09T15:03:43.897Z,8.3
2019-02-09T15:04:51.096Z,8.3
2019-02-09T15:05:58.297Z,8.3
2019-02-09T15:07:05.247Z,8.3
2019-02-09T15:08:12.447Z,8.2
2019-02-09T15:09:19.646Z,8.2
2019-02-09T15:10:26.569Z,8.1
2019-02-09T15:11:33.765Z,8.1
2019-02-09T15:12:40.966Z,8.1
2019-02-09T15:13:48.167Z,8.1
2019-02-09T15:14:55.368Z,8
2019-02-09T15:16:02.570Z,8.1
2019-02-09T15:17:09.542Z,8
2019-02-09T15:18:16.743Z,8
2019-02-09T15:19:23.945Z,8
2019-02-09T15:20:31.150Z,8
2019-02-09T15:21:38.346Z,7.9
2019-02-09T15:22:45.546Z,7.9
2019-02-09T15:23:52.740Z,7.8
2019-02-09T15:24:59.939Z,7.8
2019-02-09T15:26:06.868Z,7.8
2019-02-09T15:27:14.065Z,7.8
2019-02-09T15:28:21.263Z,7.8
2019-02-09T15:29:28.460Z,7.7
2019-02-09T15:30:35.661Z,7.7
2019-02-09T15:31:42.862Z,7.7
2019-02-09T15:32:49.785Z,7.7